Time;durP1;ratioP1;P1;durP2;ratioP2;P2;SDS_P1;SDS_P2;PMS_P1;PMS_P2;Temp;Humidity;BMP_temperature;BMP_pressure;BME280_temperature;BME280_humidity;BME280_pressure;Samples;Min_cycle;Max_cycle;Signal;HPM_P1;HPM_P2
2023/07/06 00:00:16;;;;;;;1999.90;999.90;;;;;;;24.74;47.48;101563.44;5087205;28;20062;-71
2023/07/06 00:02:42;;;;;;;1999.90;999.90;;;;;;;23.69;49.47;101558.56;5090645;28;20499;-70
2023/07/06 00:05:09;;;;;;;1999.90;999.90;;;;;;;24.52;48.52;101563.78;5091479;28;20247;-71
2023/07/06 00:07:35;;;;;;;1999.90;999.90;;;;;;;23.93;49.28;101561.72;5092371;28;20099;-71
2023/07/06 00:10:01;;;;;;;1999.90;999.90;;;;;;;23.18;50.80;101564.78;5089981;28;20043;-71
2023/07/06 00:12:29;;;;;;;1999.90;999.90;;;;;;;23.55;49.80;101561.97;5091707;28;20028;-71
2023/07/06 00:14:54;;;;;;;1999.90;999.90;;;;;;;23.87;49.42;101568.22;5093242;28;20020;-71
2023/07/06 00:17:22;;;;;;;1999.90;999.90;;;;;;;23.91;49.45;101573.47;5083506;28;20039;-71
2023/07/06 00:19:48;;;;;;;1999.90;999.90;;;;;;;23.81;49.50;101573.91;5092826;28;20025;-72
2023/07/06 00:22:14;;;;;;;1999.90;999.90;;;;;;;23.92;48.61;101567.16;5090989;28;20032;-71
2023/07/06 00:24:41;;;;;;;1999.90;999.90;;;;;;;23.46;50.18;101573.97;5092443;28;20387;-71
2023/07/06 00:27:07;;;;;;;1999.90;999.90;;;;;;;24.06;48.95;101556.59;5082051;28;20052;-71
2023/07/06 00:29:38;;;;;;;1999.90;999.90;;;;;;;24.38;48.04;101561.91;5071898;28;20098;-72
2023/07/06 00:32:15;;;;;;;1999.90;999.90;;;;;;;23.75;49.27;101565.38;5073611;28;20028;-71
2023/07/06 00:34:43;;;;;;;1999.90;999.90;;;;;;;22.21;54.04;101569.47;5092667;28;20480;-70
2023/07/06 00:37:10;;;;;;;1999.90;999.90;;;;;;;22.22;54.19;101570.38;5080201;28;20027;-71
2023/07/06 00:39:36;;;;;;;1999.90;999.90;;;;;;;22.69;53.85;101572.53;5076395;28;20047;-71
2023/07/06 00:42:05;;;;;;;1999.90;999.90;;;;;;;23.62;50.83;101563.38;5070501;28;20028;-71
2023/07/06 00:44:54;;;;;;;1999.90;999.90;;;;;;;22.60;54.14;101573.00;5072719;28;20127;-71
2023/07/06 00:47:48;;;;;;;1999.90;999.90;;;;;;;22.72;52.90;101574.19;5090697;28;20097;-71
2023/07/06 00:50:17;;;;;;;1999.90;999.90;;;;;;;22.87;52.33;101576.09;5077899;28;20124;-71
2023/07/06 00:52:49;;;;;;;1999.90;999.90;;;;;;;23.02;51.77;101574.47;5091847;28;20020;-71
2023/07/06 00:55:19;;;;;;;1999.90;999.90;;;;;;;23.33;50.98;101576.44;5090538;28;20483;-71
2023/07/06 00:57:51;;;;;;;1999.90;999.90;;;;;;;23.26;51.02;101569.72;5091922;28;20031;-71
2023/07/06 01:00:21;;;;;;;1999.90;999.90;;;;;;;23.12;50.82;101573.09;5089425;28;20123;-71
2023/07/06 01:02:54;;;;;;;1999.90;999.90;;;;;;;22.93;52.54;101570.47;5079080;28;20475;-71
2023/07/06 01:05:21;;;;;;;;;;;;;;;24.05;48.61;101568.22;5091745;28;20058;-71
2023/07/06 01:07:50;;;;;;;1999.90;999.90;;;;;;;23.99;48.62;101571.22;5093042;28;19908;-71
2023/07/06 01:10:16;;;;;;;1999.90;999.90;;;;;;;24.35;47.85;101562.09;5091102;28;20031;-69
2023/07/06 01:12:43;;;;;;;1999.90;999.90;;;;;;;23.26;49.81;101571.50;5089268;28;20121;-71
2023/07/06 01:15:09;;;;;;;1999.90;999.90;;;;;;;23.90;48.86;101563.72;5089395;28;20028;-71
2023/07/06 01:17:53;;;;;;;1999.90;999.90;;;;;;;24.29;47.37;101563.31;5091683;28;20059;-71
2023/07/06 01:21:03;;;;;;;1999.90;999.90;;;;;;;24.58;46.83;101563.47;5090577;28;20059;-71
2023/07/06 01:23:50;;;;;;;1999.90;999.90;;;;;;;23.48;49.10;101561.44;5077363;28;20033;-72
2023/07/06 01:26:46;;;;;;;1999.90;999.90;;;;;;;23.44;49.86;101567.00;5088531;28;20042;-72
2023/07/06 01:29:44;;;;;;;1999.90;999.90;;;;;;;23.03;50.32;101571.72;5089369;28;20104;-72
2023/07/06 01:32:18;;;;;;;1999.90;999.90;;;;;;;23.86;48.95;101561.19;5039854;28;20060;-72
2023/07/06 01:35:05;;;;;;;1999.90;999.90;;;;;;;24.76;46.27;101572.25;5070965;28;20020;-72
2023/07/06 01:37:43;;;;;;;1999.90;999.90;;;;;;;25.14;44.68;101561.09;5086152;28;20036;-72
2023/07/06 01:40:09;;;;;;;1999.90;999.90;;;;;;;25.98;43.10;101550.63;5070631;28;20028;-72
2023/07/06 01:42:37;;;;;;;1999.90;999.90;;;;;;;24.73;45.67;101564.41;5077771;28;20024;-72
2023/07/06 01:45:09;;;;;;;1999.90;999.90;;;;;;;24.54;46.33;101565.44;5090491;28;20035;-71
2023/07/06 01:47:40;;;;;;;1999.90;999.90;;;;;;;25.30;44.61;101565.50;5091457;28;20384;-72
2023/07/06 01:50:09;;;;;;;1999.90;999.90;;;;;;;23.44;49.15;101559.88;5090091;28;20024;-72
2023/07/06 01:52:34;;;;;;;1999.90;999.90;;;;;;;23.91;47.49;101568.97;5085811;28;20016;-72
2023/07/06 01:55:20;;;;;;;1999.90;999.90;;;;;;;23.94;48.67;101567.94;5066917;28;20045;-72
2023/07/06 01:58:07;;;;;;;1999.90;999.90;;;;;;;22.70;52.72;101563.63;5051140;28;20111;-72
2023/07/06 02:00:37;;;;;;;1999.90;999.90;;;;;;;22.53;52.95;101567.09;5042673;28;20115;-72
2023/07/06 02:03:07;;;;;;;1999.90;999.90;;;;;;;23.18;51.84;101564.78;5047392;28;20480;-72
2023/07/06 02:05:36;;;;;;;1999.90;999.90;;;;;;;23.09;51.38;101567.88;5046696;28;20027;-71
2023/07/06 02:08:05;;;;;;;1999.90;999.90;;;;;;;24.09;48.98;101563.56;5049331;28;20023;-72
2023/07/06 02:10:30;;;;;;;1999.90;999.90;;;;;;;22.96;52.25;101553.47;5046857;28;20568;-72
2023/07/06 02:12:56;;;;;;;1999.90;999.90;;;;;;;21.73;57.44;101555.72;5032413;28;20059;-71
2023/07/06 02:15:22;;;;;;;1999.90;999.90;;;;;;;22.70;53.81;101564.47;5045012;28;20040;-71
2023/07/06 02:17:50;;;;;;;1999.90;999.90;;;;;;;23.06;53.69;101548.53;5052531;28;20024;-72
2023/07/06 02:20:19;;;;;;;1999.90;999.90;;;;;;;22.40;56.21;101560.66;5045880;28;20140;-72
2023/07/06 02:22:45;;;;;;;1999.90;999.90;;;;;;;22.23;56.70;101548.09;5033379;28;20396;-71
2023/07/06 02:25:11;;;;;;;1999.90;999.90;;;;;;;23.31;54.02;101558.78;5034117;28;20028;-72
2023/07/06 02:27:36;;;;;;;1999.90;999.90;;;;;;;23.53;51.78;101545.19;5049983;28;20030;-72
2023/07/06 02:30:04;;;;;;;1999.90;999.90;;;;;;;23.65;51.29;101551.69;5032946;28;20029;-72
2023/07/06 02:32:31;;;;;;;1999.90;999.90;;;;;;;24.27;48.57;101559.00;5032593;28;20028;-72
2023/07/06 02:34:56;;;;;;;1999.90;999.90;;;;;;;24.21;49.42;101549.53;5032713;28;20491;-72
2023/07/06 02:37:23;;;;;;;1999.90;999.90;;;;;;;24.44;49.20;101560.69;5042139;28;20119;-72
2023/07/06 02:39:50;;;;;;;1999.90;999.90;;;;;;;24.99;46.94;101556.66;5045630;28;20113;-71
2023/07/06 02:42:16;;;;;;;1999.90;999.90;;;;;;;24.90;47.17;101553.56;5070802;28;20036;-73
2023/07/06 02:44:43;;;;;;;1999.90;999.90;;;;;;;23.65;49.84;101560.53;5070229;28;20032;-72
2023/07/06 02:47:09;;;;;;;1999.90;999.90;;;;;;;24.29;48.81;101557.09;5050672;28;20055;-72
2023/07/06 02:49:35;;;;;;;1999.90;999.90;;;;;;;23.87;50.46;101562.03;5052441;28;20043;-72
2023/07/06 02:52:00;;;;;;;1999.90;999.90;;;;;;;23.92;50.61;101564.47;5070861;28;20028;-72
2023/07/06 02:54:27;;;;;;;1999.90;999.90;;;;;;;24.29;48.94;101565.09;5049481;28;20591;-72
2023/07/06 02:56:52;;;;;;;1999.90;999.90;;;;;;;23.21;52.49;101574.41;5079536;28;20036;-72
2023/07/06 02:59:18;;;;;;;1999.90;999.90;;;;;;;23.44;51.95;101575.88;5088494;28;20028;-71
2023/07/06 03:01:45;;;;;;;1999.90;999.90;;;;;;;24.07;50.04;101563.66;5090336;28;20020;-72
2023/07/06 03:04:11;;;;;;;1999.90;999.90;;;;;;;24.78;48.10;101569.47;5074351;28;20033;-72
2023/07/06 03:06:38;;;;;;;1999.90;999.90;;;;;;;23.40;51.36;101570.78;5069513;28;20067;-71
2023/07/06 03:09:04;;;;;;;1999.90;999.90;;;;;;;23.95;50.56;101572.34;5073307;28;20452;-72
2023/07/06 03:11:33;;;;;;;1999.90;999.90;;;;;;;22.66;54.32;101578.88;5069547;28;20131;-72
2023/07/06 03:14:05;;;;;;;1999.90;999.90;;;;;;;23.79;51.99;101581.13;5078463;28;20377;-72
2023/07/06 03:16:39;;;;;;;1999.90;999.90;;;;;;;24.34;49.68;101571.06;5068588;28;20510;-71
2023/07/06 03:19:10;;;;;;;1999.90;999.90;;;;;;;24.88;48.05;101582.22;5076749;28;20378;-72
2023/07/06 03:21:38;;;;;;;1999.90;999.90;;;;;;;24.85;47.46;101574.38;5089235;28;20031;-72
2023/07/06 03:24:06;;;;;;;1999.90;999.90;;;;;;;23.99;50.79;101580.09;5071304;28;20032;-72
2023/07/06 03:26:33;;;;;;;1999.90;999.90;;;;;;;24.12;50.01;101585.59;5069397;28;20032;-72
2023/07/06 03:29:00;;;;;;;1999.90;999.90;;;;;;;23.64;50.87;101584.63;5068075;28;20024;-72
2023/07/06 03:31:25;;;;;;;1999.90;999.90;;;;;;;24.18;49.47;101584.41;5076662;28;20027;-72
2023/07/06 03:33:51;;;;;;;1999.90;999.90;;;;;;;24.15;50.54;101588.13;5088542;28;20041;-72
2023/07/06 03:36:16;;;;;;;1999.90;999.90;;;;;;;23.86;50.37;101592.34;5088470;28;20096;-72
2023/07/06 03:38:42;;;;;;;1999.90;999.90;;;;;;;23.21;53.72;101590.41;5092222;28;20082;-72
2023/07/06 03:41:07;;;;;;;1999.90;999.90;;;;;;;23.48;53.17;101596.13;5091252;28;20050;-71
2023/07/06 03:43:34;;;;;;;1999.90;999.90;;;;;;;23.57;53.30;101591.25;5085760;28;20028;-72
2023/07/06 03:46:03;;;;;;;1999.90;999.90;;;;;;;23.47;52.73;101591.72;5084651;28;20032;-72
2023/07/06 03:48:28;;;;;;;1999.90;999.90;;;;;;;23.77;51.71;101585.72;5093327;28;20107;-72
2023/07/06 03:50:54;;;;;;;1999.90;999.90;;;;;;;23.98;50.72;101593.53;5084533;28;20111;-72
2023/07/06 03:53:21;;;;;;;1999.90;999.90;;;;;;;23.76;53.03;101597.31;5074121;28;20024;-72
2023/07/06 03:55:47;;;;;;;1999.90;999.90;;;;;;;24.06;51.34;101588.63;5093144;28;20059;-72
2023/07/06 03:58:13;;;;;;;1999.90;999.90;;;;;;;23.57;52.82;101591.25;5091467;28;20545;-72
2023/07/06 04:00:38;;;;;;;1999.90;999.90;;;;;;;23.86;51.72;101597.69;5093008;28;20020;-72
2023/07/06 04:03:06;;;;;;;1999.90;999.90;;;;;;;24.48;49.84;101600.53;5093093;28;20028;-72
2023/07/06 04:05:37;;;;;;;1999.90;999.90;;;;;;;24.33;50.68;101596.03;5087429;28;20438;-72
2023/07/06 04:08:07;;;;;;;1999.90;999.90;;;;;;;22.94;54.59;101603.31;5078190;28;20416;-72
2023/07/06 04:10:34;;;;;;;1999.90;999.90;;;;;;;23.41;54.04;101602.72;5092330;28;20043;-72
2023/07/06 04:13:00;;;;;;;1999.90;999.90;;;;;;;24.02;51.75;101597.75;5090762;28;20028;-72
2023/07/06 04:15:25;;;;;;;1999.90;999.90;;;;;;;23.82;53.61;101605.00;5082443;28;20510;-72
2023/07/06 04:17:52;;;;;;;1999.90;999.90;;;;;;;23.76;53.57;101608.00;5091967;28;20035;-72
2023/07/06 04:20:24;;;;;;;1999.90;999.90;;;;;;;23.84;53.33;101605.78;5086074;28;20021;-72
2023/07/06 04:22:57;;;;;;;1999.90;999.90;;;;;;;23.67;53.37;101613.81;5072303;28;20046;-72
2023/07/06 04:25:29;;;;;;;1999.90;999.90;;;;;;;24.15;52.08;101606.81;5086045;28;20135;-72
2023/07/06 04:27:56;;;;;;;1999.90;999.90;;;;;;;23.52;54.67;101611.03;5091969;28;20043;-72
2023/07/06 04:30:21;;;;;;;1999.90;999.90;;;;;;;24.54;50.93;101607.34;5092647;28;20120;-72
2023/07/06 04:32:50;;;;;;;1999.90;999.90;;;;;;;24.29;51.73;101602.50;5091821;28;20107;-72
2023/07/06 04:35:18;;;;;;;1999.90;999.90;;;;;;;23.38;54.22;101609.09;5087308;28;20081;-73
2023/07/06 04:37:45;;;;;;;1999.90;999.90;;;;;;;22.97;57.34;101613.81;5093408;28;20046;-72
2023/07/06 04:40:13;;;;;;;1999.90;999.90;;;;;;;23.42;56.38;101615.09;5092374;28;20399;-71
2023/07/06 04:42:40;;;;;;;1999.90;999.90;;;;;;;23.86;54.48;101617.25;5092841;28;20036;-72
2023/07/06 04:45:08;;;;;;;1999.90;999.90;;;;;;;23.68;55.56;101615.53;5088604;28;20085;-71
2023/07/06 04:47:34;;;;;;;1999.90;999.90;;;;;;;24.15;52.54;101614.84;5074097;28;20060;-73
2023/07/06 04:49:59;;;;;;;1999.90;999.90;;;;;;;23.07;57.11;101620.41;5071595;28;20059;-72
2023/07/06 04:52:24;;;;;;;1999.90;999.90;;;;;;;24.33;54.25;101625.41;5072781;28;20454;-72
2023/07/06 04:54:50;;;;;;;1999.90;999.90;;;;;;;24.83;52.66;101627.06;5071921;28;20059;-72
2023/07/06 04:57:16;;;;;;;1999.90;999.90;;;;;;;24.92;51.30;101628.34;5071709;28;20044;-72
2023/07/06 04:59:42;;;;;;;1999.90;999.90;;;;;;;24.42;52.29;101632.94;5085210;28;20547;-72
2023/07/06 05:02:10;;;;;;;1999.90;999.90;;;;;;;23.90;55.34;101636.66;5080282;28;20644;-72
2023/07/06 05:04:40;;;;;;;1999.90;999.90;;;;;;;25.44;49.96;101637.78;5091012;28;20028;-72
2023/07/06 05:07:06;;;;;;;1999.90;999.90;;;;;;;25.05;50.87;101642.72;5090938;28;20475;-72
2023/07/06 05:09:32;;;;;;;1999.90;999.90;;;;;;;23.40;56.82;101638.34;5092983;28;20027;-72
2023/07/06 05:11:58;;;;;;;1999.90;999.90;;;;;;;24.52;52.50;101634.16;5090566;28;20388;-72
2023/07/06 05:14:23;;;;;;;1999.90;999.90;;;;;;;25.22;50.91;101639.06;5070648;28;20650;-73
2023/07/06 05:16:49;;;;;;;1999.90;999.90;;;;;;;25.01;51.03;101640.31;5085957;28;20068;-72
2023/07/06 05:19:15;;;;;;;1999.90;999.90;;;;;;;24.78;51.53;101637.16;5091522;28;20028;-73
2023/07/06 05:21:41;;;;;;;1999.90;999.90;;;;;;;25.43;49.72;101644.13;5080946;28;20119;-73
2023/07/06 05:24:07;;;;;;;1999.90;999.90;;;;;;;25.54;49.24;101654.16;5071502;28;20116;-71
2023/07/06 05:26:32;;;;;;;1999.90;999.90;;;;;;;24.90;50.13;101648.97;5085526;28;20024;-71
2023/07/06 05:28:58;;;;;;;1999.90;999.90;;;;;;;25.76;48.03;101659.09;5090401;28;20063;-71
2023/07/06 05:31:23;;;;;;;1999.90;999.90;;;;;;;24.80;51.59;101651.31;5078326;28;20043;-71
2023/07/06 05:33:49;;;;;;;1999.90;999.90;;;;;;;24.51;52.52;101648.44;5071569;28;20036;-70
2023/07/06 05:36:14;;;;;;;1999.90;999.90;;;;;;;24.90;51.34;101649.81;5086249;28;20032;-71
2023/07/06 05:38:39;;;;;;;1999.90;999.90;;;;;;;23.59;54.74;101659.59;5089059;28;20536;-72
2023/07/06 05:41:05;;;;;;;1999.90;999.90;;;;;;;23.99;54.47;101662.00;5090801;28;20036;-71
2023/07/06 05:43:31;;;;;;;1999.90;999.90;;;;;;;24.32;53.70;101658.44;5091813;28;20107;-71
2023/07/06 05:45:56;;;;;;;1999.90;999.90;;;;;;;25.27;50.54;101667.38;5089892;28;20042;-71
2023/07/06 05:48:21;;;;;;;1999.90;999.90;;;;;;;24.82;50.71;101653.91;5086444;28;20032;-71
2023/07/06 05:50:50;;;;;;;1999.90;999.90;;;;;;;24.41;52.55;101662.41;5090838;28;20028;-71
2023/07/06 05:53:15;;;;;;;1999.90;999.90;;;;;;;23.70;57.13;101656.38;5089006;28;20036;-71
2023/07/06 05:55:43;;;;;;;1999.90;999.90;;;;;;;24.31;55.58;101659.38;5080436;28;20057;-71
2023/07/06 05:58:13;;;;;;;1999.90;999.90;;;;;;;24.51;52.75;101667.16;5089457;28;20052;-71
2023/07/06 06:00:42;;;;;;;1999.90;999.90;;;;;;;24.75;53.45;101665.91;5089157;28;20054;-71
2023/07/06 06:03:07;;;;;;;1999.90;999.90;;;;;;;23.79;57.44;101674.53;5080300;28;20431;-71
2023/07/06 06:05:34;;;;;;;1999.90;999.90;;;;;;;23.77;56.60;101679.13;5079385;28;20125;-71
2023/07/06 06:08:01;;;;;;;1999.90;999.90;;;;;;;25.15;51.20;101683.16;5078652;28;20024;-71
2023/07/06 06:10:28;;;;;;;1999.90;999.90;;;;;;;24.91;52.50;101682.78;5089669;28;20035;-71
2023/07/06 06:12:54;;;;;;;1999.90;999.90;;;;;;;25.17;51.94;101681.28;5077025;28;20020;-72
2023/07/06 06:15:20;;;;;;;1999.90;999.90;;;;;;;25.20;51.88;101689.09;5087181;28;20032;-72
2023/07/06 06:17:48;;;;;;;1999.90;999.90;;;;;;;25.39;50.79;101685.41;5068991;28;20044;-72
2023/07/06 06:20:14;;;;;;;1999.90;999.90;;;;;;;24.80;53.87;101685.19;5069996;28;20032;-72
2023/07/06 06:22:42;;;;;;;1999.90;999.90;;;;;;;25.57;50.93;101691.47;5086520;28;20032;-72
2023/07/06 06:25:08;;;;;;;1999.90;999.90;;;;;;;26.83;46.60;101698.84;5089187;28;20028;-72
2023/07/06 06:27:34;;;;;;;1999.90;999.90;;;;;;;27.21;45.85;101698.13;5082643;28;20072;-72
2023/07/06 06:29:59;;;;;;;1999.90;999.90;;;;;;;26.43;47.33;101701.38;5070763;28;20476;-72
2023/07/06 06:32:25;;;;;;;1999.90;999.90;;;;;;;26.82;46.44;101710.53;5081109;28;20122;-72
2023/07/06 06:34:51;;;;;;;1999.90;999.90;;;;;;;25.83;49.31;101716.66;5090073;28;20027;-72
2023/07/06 06:37:16;;;;;;;1999.90;999.90;;;;;;;26.86;46.68;101713.84;5077664;28;20033;-72
2023/07/06 06:39:42;;;;;;;1999.90;999.90;;;;;;;25.33;49.11;101715.19;5085497;28;20127;-72
2023/07/06 06:42:08;;;;;;;1999.90;999.90;;;;;;;26.67;46.94;101712.34;5074617;28;20540;-72
2023/07/06 06:44:34;;;;;;;1999.90;999.90;;;;;;;28.49;42.18;101714.44;5077871;28;20101;-72
2023/07/06 06:47:04;;;;;;;1999.90;999.90;;;;;;;27.70;42.97;101725.31;5069149;28;20035;-72
2023/07/06 06:49:30;;;;;;;1999.90;999.90;;;;;;;27.78;43.52;101717.59;5085110;28;20020;-72
2023/07/06 06:51:56;;;;;;;1999.90;999.90;;;;;;;29.56;40.28;101716.38;5080590;28;20096;-72
2023/07/06 06:54:21;;;;;;;1999.90;999.90;;;;;;;30.85;37.32;101722.47;5075939;28;20044;-72
2023/07/06 06:56:50;;;;;;;1999.90;999.90;;;;;;;32.44;34.68;101717.91;5039497;28;20028;-72
2023/07/06 06:59:15;;;;;;;1999.90;999.90;;;;;;;32.57;34.25;101728.47;5045083;28;20036;-74
2023/07/06 07:01:41;;;;;;;1999.90;999.90;;;;;;;32.52;34.27;101725.34;5035299;28;20024;-72
2023/07/06 07:04:10;;;;;;;1999.90;999.90;;;;;;;32.86;33.21;101724.13;5047948;28;20032;-72
2023/07/06 07:06:38;;;;;;;1999.90;999.90;;;;;;;33.83;32.06;101731.41;5044558;28;20492;-72
2023/07/06 07:09:04;;;;;;;1999.90;999.90;;;;;;;32.61;33.15;101724.47;5045271;28;20035;-73
2023/07/06 07:11:30;;;;;;;1999.90;999.90;;;;;;;31.52;34.22;101726.75;5041068;28;20024;-73
2023/07/06 07:13:55;;;;;;;1999.90;999.90;;;;;;;30.00;37.25;101731.94;5039800;28;20036;-72
2023/07/06 07:16:21;;;;;;;1999.90;999.90;;;;;;;29.73;38.29;101730.38;5041575;28;20032;-72
2023/07/06 07:18:50;;;;;;;1999.90;999.90;;;;;;;31.90;34.99;101725.34;5064153;28;20033;-72
2023/07/06 07:21:19;;;;;;;1999.90;999.90;;;;;;;31.51;34.43;101726.91;5057976;28;20480;-72
2023/07/06 07:23:50;;;;;;;1999.90;999.90;;;;;;;32.51;33.13;101737.13;5044905;28;20047;-72
2023/07/06 07:26:21;;;;;;;1999.90;999.90;;;;;;;32.54;33.79;101734.16;5060770;28;20059;-72
2023/07/06 07:28:51;;;;;;;1999.90;999.90;;;;;;;32.95;32.69;101732.28;5043086;28;20111;-73
2023/07/06 07:31:19;;;;;;;1999.90;999.90;;;;;;;35.10;30.29;101740.78;5051825;28;20055;-73
2023/07/06 07:33:46;;;;;;;1999.90;999.90;;;;;;;34.88;30.29;101732.06;5044343;28;20407;-72
2023/07/06 07:36:14;;;;;;;1999.90;999.90;;;;;;;35.32;29.57;101734.91;5051310;28;20472;-72
2023/07/06 07:38:40;;;;;;;1999.90;999.90;;;;;;;33.80;32.05;101737.13;5052195;28;20029;-73
2023/07/06 07:41:07;;;;;;;1999.90;999.90;;;;;;;33.42;31.11;101730.75;5051831;28;20043;-72
2023/07/06 07:43:35;;;;;;;1999.90;999.90;;;;;;;34.83;29.29;101739.84;5050202;28;20028;-73
2023/07/06 07:46:05;;;;;;;1999.90;999.90;;;;;;;34.62;30.71;101749.09;5031597;28;20040;-72
2023/07/06 07:48:40;;;;;;;1999.90;999.90;;;;;;;34.26;31.01;101738.09;5050831;28;20107;-72
2023/07/06 07:51:08;;;;;;;1999.90;999.90;;;;;;;35.62;28.12;101740.91;5050105;28;20044;-72
2023/07/06 07:53:36;;;;;;;1999.90;999.90;;;;;;;34.35;29.80;101740.94;5047281;28;20081;-72
2023/07/06 07:56:04;;;;;;;1999.90;999.90;;;;;;;32.97;31.38;101751.94;5063906;28;20051;-72
2023/07/06 07:58:31;;;;;;;1999.90;999.90;;;;;;;31.68;33.36;101757.88;5068620;28;20024;-73
2023/07/06 08:00:56;;;;;;;1999.90;999.90;;;;;;;30.62;34.90;101760.28;5069804;28;20032;-72
2023/07/06 08:03:27;;;;;;;1999.90;999.90;;;;;;;30.95;35.75;101748.56;5070339;28;20258;-72
2023/07/06 08:05:53;;;;;;;1999.90;999.90;;;;;;;30.07;36.92;101760.13;5087266;28;20503;-72
2023/07/06 08:08:22;;;;;;;1999.90;999.90;;;;;;;29.79;37.60;101759.56;5073319;28;20487;-73
2023/07/06 08:10:51;;;;;;;1999.90;999.90;;;;;;;31.61;34.72;101750.31;5083118;28;20537;-73
2023/07/06 08:13:17;;;;;;;1999.90;999.90;;;;;;;29.56;38.24;101762.16;5080163;28;20106;-72
2023/07/06 08:15:44;;;;;;;1999.90;999.90;;;;;;;30.48;35.99;101764.09;5086338;28;20413;-73
2023/07/06 08:18:10;;;;;;;1999.90;999.90;;;;;;;30.43;36.35;101766.25;5086183;28;20026;-73
2023/07/06 08:20:38;;;;;;;1999.90;999.90;;;;;;;31.58;34.50;101758.63;5076323;28;20032;-72
2023/07/06 08:23:10;;;;;;;1999.90;999.90;;;;;;;31.86;33.39;101761.72;5077454;28;20378;-73
2023/07/06 08:25:38;;;;;;;1999.90;999.90;;;;;;;32.31;32.36;101760.53;5077400;28;20024;-72
2023/07/06 08:28:14;;;;;;;1999.90;999.90;;;;;;;31.40;33.55;101771.03;5076507;28;20047;-73
2023/07/06 08:30:42;;;;;;;1999.90;999.90;;;;;;;28.48;38.10;101775.44;5089737;28;20032;-73
2023/07/06 08:33:11;;;;;;;1999.90;999.90;;;;;;;29.55;35.57;101779.31;5081523;28;20028;-73
2023/07/06 08:35:45;;;;;;;1999.90;999.90;;;;;;;30.15;35.39;101773.00;5081297;28;20135;-72
2023/07/06 08:38:14;;;;;;;1999.90;999.90;;;;;;;30.02;35.53;101778.47;5080346;28;20035;-72
2023/07/06 08:40:42;;;;;;;1999.90;999.90;;;;;;;27.73;38.24;101781.50;5080965;28;20082;-72
2023/07/06 08:43:20;;;;;;;1999.90;999.90;;;;;;;27.63;38.47;101781.28;5089437;28;20028;-72
2023/07/06 08:45:49;;;;;;;1999.90;999.90;;;;;;;28.85;37.51;101783.56;5073162;28;20085;-72
2023/07/06 08:48:17;;;;;;;1999.90;999.90;;;;;;;31.23;32.93;101776.00;5072605;28;20127;-72
2023/07/06 08:50:51;;;;;;;1999.90;999.90;;;;;;;32.52;31.19;101781.28;5086053;28;20457;-73
2023/07/06 08:53:19;;;;;;;1999.90;999.90;;;;;;;32.85;30.35;101780.13;5090610;28;20028;-73
2023/07/06 08:55:46;;;;;;;1999.90;999.90;;;;;;;31.46;32.44;101779.47;5090218;28;20079;-72
2023/07/06 08:58:22;;;;;;;1999.90;999.90;;;;;;;31.34;32.92;101793.13;5071524;28;20024;-72
2023/07/06 09:00:55;;;;;;;1999.90;999.90;;;;;;;29.42;35.71;101792.00;5085970;28;20054;-71
2023/07/06 09:03:23;;;;;;;1999.90;999.90;;;;;;;29.77;35.46;101791.13;5087507;28;20035;-72
2023/07/06 09:05:49;;;;;;;1999.90;999.90;;;;;;;28.42;37.91;101794.69;5076514;28;20020;-72
2023/07/06 09:08:17;;;;;;;1999.90;999.90;;;;;;;27.11;39.81;101793.59;5070743;28;20392;-72
2023/07/06 09:10:43;;;;;;;1999.90;999.90;;;;;;;27.07;40.92;101797.44;5077601;28;20127;-72
2023/07/06 09:13:19;;;;;;;1999.90;999.90;;;;;;;26.70;42.53;101810.53;5079586;28;20115;-72
2023/07/06 09:15:48;;;;;;;1999.90;999.90;;;;;;;27.38;41.70;101807.06;5071116;28;20196;-72
2023/07/06 09:18:15;;;;;;;1999.90;999.90;;;;;;;26.86;42.26;101821.13;5078890;28;20024;-72
2023/07/06 09:20:44;;;;;;;1999.90;999.90;;;;;;;26.24;43.84;101828.47;5074688;28;20020;-73
2023/07/06 09:23:13;;;;;;;1999.90;999.90;;;;;;;23.79;49.33;101837.38;5075441;28;20536;-72
2023/07/06 09:25:42;;;;;;;1999.90;999.90;;;;;;;25.76;45.62;101818.84;5083927;28;20028;-72
2023/07/06 09:28:15;;;;;;;1999.90;999.90;;;;;;;25.81;44.67;101822.97;5084335;28;20308;-72
2023/07/06 09:30:41;;;;;;;1999.90;999.90;;;;;;;25.97;45.56;101822.06;5074896;28;20032;-72
2023/07/06 09:33:24;;;;;;;1999.90;999.90;;;;;;;25.99;44.88;101828.19;5082958;28;20533;-72
2023/07/06 09:35:52;;;;;;;1999.90;999.90;;;;;;;26.75;43.71;101829.88;5083623;28;20024;-72
2023/07/06 09:38:19;;;;;;;1999.90;999.90;;;;;;;26.59;44.43;101827.25;5075252;28;20040;-72
2023/07/06 09:40:46;;;;;;;1999.90;999.90;;;;;;;26.94;43.92;101828.69;5075454;28;20051;-72
2023/07/06 09:43:27;;;;;;;1999.90;999.90;;;;;;;27.92;42.37;101819.56;5070774;28;20086;-72
2023/07/06 09:45:54;;;;;;;1999.90;999.90;;;;;;;28.23;42.01;101822.88;5084817;28;20039;-72
2023/07/06 09:48:31;;;;;;;1999.90;999.90;;;;;;;28.26;42.67;101825.34;5092195;28;20027;-72
2023/07/06 09:51:06;;;;;;;1999.90;999.90;;;;;;;28.66;42.24;101826.19;5074613;28;20032;-73
2023/07/06 09:53:36;;;;;;;1999.90;999.90;;;;;;;28.09;41.84;101829.16;5070265;28;20040;-72
2023/07/06 09:56:03;;;;;;;1999.90;999.90;;;;;;;29.41;39.82;101830.66;5069160;28;20135;-72
2023/07/06 09:58:30;;;;;;;1999.90;999.90;;;;;;;29.78;39.32;101828.72;5083961;28;20059;-72
2023/07/06 10:01:05;;;;;;;1999.90;999.90;;;;;;;29.68;38.41;101826.88;5088104;28;20031;-72
2023/07/06 10:03:41;;;;;;;1999.90;999.90;;;;;;;29.49;38.28;101827.41;5088928;28;20062;-73
2023/07/06 10:06:24;;;;;;;1999.90;999.90;;;;;;;28.06;38.36;101839.28;5076021;28;20028;-72
2023/07/06 10:09:03;;;;;;;1999.90;999.90;;;;;;;27.89;39.56;101837.69;5074599;28;20058;-72
2023/07/06 10:11:34;;;;;;;1999.90;999.90;;;;;;;30.50;37.38;101843.03;5085104;28;20032;-72
2023/07/06 10:14:38;;;;;;;1999.90;999.90;;;;;;;30.23;36.17;101846.88;5090347;28;20032;-72
2023/07/06 10:17:21;;;;;;;1999.90;999.90;;;;;;;30.69;35.13;101846.97;5071519;28;20047;-71
2023/07/06 10:20:09;;;;;;;1999.90;999.90;;;;;;;31.29;33.74;101840.28;5074571;28;20032;-72
2023/07/06 10:22:53;;;;;;;1999.90;999.90;;;;;;;32.04;32.27;101834.97;5079038;28;20020;-71
2023/07/06 10:25:50;;;;;;;1999.90;999.90;;;;;;;29.45;32.06;101834.84;5079672;28;20118;-71
2023/07/06 10:28:28;;;;;;;1999.90;999.90;;;;;;;29.54;30.46;101835.97;5086430;28;20028;-72
2023/07/06 10:30:57;;;;;;;1999.90;999.90;;;;;;;29.58;31.56;101845.53;5075217;28;20449;-71
2023/07/06 10:33:46;;;;;;;1999.90;999.90;;;;;;;32.77;29.32;101839.53;5087204;28;20039;-72
2023/07/06 10:36:13;;;;;;;1999.90;999.90;;;;;;;34.30;27.06;101836.34;5091129;28;20236;-71
2023/07/06 10:38:39;;;;;;;1999.90;999.90;;;;;;;32.75;25.49;101836.06;5082302;28;20066;-72
2023/07/06 10:41:10;;;;;;;1999.90;999.90;;;;;;;32.32;26.14;101837.16;5076922;28;20445;-72
2023/07/06 10:43:40;;;;;;;1999.90;999.90;;;;;;;33.61;25.15;101836.41;5083801;28;20031;-72
2023/07/06 10:46:25;;;;;;;1999.90;999.90;;;;;;;31.51;25.32;101843.91;5081668;28;20046;-73
2023/07/06 10:48:54;;;;;;;1999.90;999.90;;;;;;;32.12;25.10;101835.16;5085080;28;20032;-73
2023/07/06 10:51:25;;;;;;;1999.90;999.90;;;;;;;31.56;25.62;101841.66;5089812;28;20107;-72
2023/07/06 10:54:32;;;;;;;1999.90;999.90;;;;;;;31.87;24.64;101844.50;5087107;28;20582;-72
2023/07/06 10:57:04;;;;;;;1999.90;999.90;;;;;;;30.21;25.48;101848.84;4982544;28;20050;-71